sensor_id;sensor_type;location;lat;lon;timestamp;P1;durP1;ratioP1;P2;durP2;ratioP2
15354;SDS011;7777;52.254;9.618;2023-04-25T00:02:21;9.33;;;4.27;;
15354;SDS011;7777;52.254;9.618;2023-04-25T00:04:47;12.33;;;4.30;;
15354;SDS011;7777;52.254;9.618;2023-04-25T00:07:13;11.13;;;4.30;;
15354;SDS011;7777;52.254;9.618;2023-04-25T00:09:39;14.30;;;4.13;;
15354;SDS011;7777;52.254;9.618;2023-04-25T00:12:05;13.90;;;5.43;;
15354;SDS011;7777;52.254;9.618;2023-04-25T00:14:31;13.60;;;4.80;;
15354;SDS011;7777;52.254;9.618;2023-04-25T00:16:59;11.13;;;4.83;;
15354;SDS011;7777;52.254;9.618;2023-04-25T00:19:25;14.23;;;5.73;;
15354;SDS011;7777;52.254;9.618;2023-04-25T00:21:53;15.03;;;5.40;;
15354;SDS011;7777;52.254;9.618;2023-04-25T00:24:20;10.30;;;4.43;;
15354;SDS011;7777;52.254;9.618;2023-04-25T00:26:46;12.60;;;4.60;;
15354;SDS011;7777;52.254;9.618;2023-04-25T00:29:12;17.13;;;5.40;;
15354;SDS011;7777;52.254;9.618;2023-04-25T00:31:38;12.57;;;5.60;;
15354;SDS011;7777;52.254;9.618;2023-04-25T00:34:03;12.50;;;5.10;;
15354;SDS011;7777;52.254;9.618;2023-04-25T00:36:31;7.63;;;4.40;;
15354;SDS011;7777;52.254;9.618;2023-04-25T00:38:56;13.87;;;5.30;;
15354;SDS011;7777;52.254;9.618;2023-04-25T00:41:22;10.80;;;5.10;;
15354;SDS011;7777;52.254;9.618;2023-04-25T00:43:51;11.20;;;5.07;;
15354;SDS011;7777;52.254;9.618;2023-04-25T00:46:19;14.20;;;5.53;;
15354;SDS011;7777;52.254;9.618;2023-04-25T00:48:44;13.90;;;6.03;;
15354;SDS011;7777;52.254;9.618;2023-04-25T00:51:11;11.93;;;4.83;;
15354;SDS011;7777;52.254;9.618;2023-04-25T00:53:46;14.70;;;5.20;;
15354;SDS011;7777;52.254;9.618;2023-04-25T00:56:14;12.40;;;4.93;;
15354;SDS011;7777;52.254;9.618;2023-04-25T00:58:41;9.47;;;4.80;;
15354;SDS011;7777;52.254;9.618;2023-04-25T01:01:07;14.70;;;5.13;;
15354;SDS011;7777;52.254;9.618;2023-04-25T01:03:34;13.07;;;4.33;;
15354;SDS011;7777;52.254;9.618;2023-04-25T01:06:07;11.77;;;4.97;;
15354;SDS011;7777;52.254;9.618;2023-04-25T01:08:34;9.73;;;4.53;;
15354;SDS011;7777;52.254;9.618;2023-04-25T01:11:02;10.50;;;5.63;;
15354;SDS011;7777;52.254;9.618;2023-04-25T01:13:27;9.80;;;5.83;;
15354;SDS011;7777;52.254;9.618;2023-04-25T01:15:54;11.63;;;5.03;;
15354;SDS011;7777;52.254;9.618;2023-04-25T01:18:20;12.57;;;5.83;;
15354;SDS011;7777;52.254;9.618;2023-04-25T01:20:47;9.60;;;5.20;;
15354;SDS011;7777;52.254;9.618;2023-04-25T01:23:16;13.13;;;5.63;;
15354;SDS011;7777;52.254;9.618;2023-04-25T01:25:42;14.77;;;5.50;;
15354;SDS011;7777;52.254;9.618;2023-04-25T01:28:08;12.57;;;5.33;;
15354;SDS011;7777;52.254;9.618;2023-04-25T01:30:34;11.60;;;5.93;;
15354;SDS011;7777;52.254;9.618;2023-04-25T01:33:00;17.83;;;6.43;;
15354;SDS011;7777;52.254;9.618;2023-04-25T01:35:30;9.40;;;5.13;;
15354;SDS011;7777;52.254;9.618;2023-04-25T01:37:57;11.00;;;5.40;;
15354;SDS011;7777;52.254;9.618;2023-04-25T01:40:24;13.13;;;6.17;;
15354;SDS011;7777;52.254;9.618;2023-04-25T01:42:51;16.30;;;5.67;;
15354;SDS011;7777;52.254;9.618;2023-04-25T01:45:17;18.30;;;6.37;;
15354;SDS011;7777;52.254;9.618;2023-04-25T01:47:43;15.33;;;5.87;;
15354;SDS011;7777;52.254;9.618;2023-04-25T01:50:13;17.97;;;5.63;;
15354;SDS011;7777;52.254;9.618;2023-04-25T01:52:47;10.27;;;5.10;;
15354;SDS011;7777;52.254;9.618;2023-04-25T01:55:13;8.17;;;5.03;;
15354;SDS011;7777;52.254;9.618;2023-04-25T01:57:39;8.83;;;5.17;;
15354;SDS011;7777;52.254;9.618;2023-04-25T02:00:05;8.83;;;4.67;;
15354;SDS011;7777;52.254;9.618;2023-04-25T02:02:32;7.57;;;4.33;;
15354;SDS011;7777;52.254;9.618;2023-04-25T02:04:57;7.87;;;4.57;;
15354;SDS011;7777;52.254;9.618;2023-04-25T02:07:23;10.83;;;5.37;;
15354;SDS011;7777;52.254;9.618;2023-04-25T02:09:49;9.00;;;4.43;;
15354;SDS011;7777;52.254;9.618;2023-04-25T02:12:15;6.97;;;3.73;;
15354;SDS011;7777;52.254;9.618;2023-04-25T02:14:40;12.27;;;5.07;;
15354;SDS011;7777;52.254;9.618;2023-04-25T02:17:06;8.73;;;3.90;;
15354;SDS011;7777;52.254;9.618;2023-04-25T02:19:32;6.73;;;3.67;;
15354;SDS011;7777;52.254;9.618;2023-04-25T02:21:59;9.10;;;3.83;;
15354;SDS011;7777;52.254;9.618;2023-04-25T02:24:26;8.17;;;4.20;;
15354;SDS011;7777;52.254;9.618;2023-04-25T02:26:52;7.93;;;3.67;;
15354;SDS011;7777;52.254;9.618;2023-04-25T02:29:20;10.23;;;4.00;;
15354;SDS011;7777;52.254;9.618;2023-04-25T02:31:46;9.23;;;3.93;;
15354;SDS011;7777;52.254;9.618;2023-04-25T02:34:12;8.27;;;3.90;;
15354;SDS011;7777;52.254;9.618;2023-04-25T02:36:37;10.50;;;3.17;;
15354;SDS011;7777;52.254;9.618;2023-04-25T02:39:03;8.37;;;4.27;;
15354;SDS011;7777;52.254;9.618;2023-04-25T02:41:29;6.00;;;2.87;;
15354;SDS011;7777;52.254;9.618;2023-04-25T02:43:55;10.73;;;3.83;;
15354;SDS011;7777;52.254;9.618;2023-04-25T02:46:20;13.10;;;4.17;;
15354;SDS011;7777;52.254;9.618;2023-04-25T02:48:46;11.97;;;3.83;;
15354;SDS011;7777;52.254;9.618;2023-04-25T02:51:12;10.47;;;4.80;;
15354;SDS011;7777;52.254;9.618;2023-04-25T02:53:37;12.77;;;3.83;;
15354;SDS011;7777;52.254;9.618;2023-04-25T02:56:03;10.93;;;4.80;;
15354;SDS011;7777;52.254;9.618;2023-04-25T02:58:29;16.30;;;3.63;;
15354;SDS011;7777;52.254;9.618;2023-04-25T03:00:58;15.37;;;4.03;;
15354;SDS011;7777;52.254;9.618;2023-04-25T03:03:24;17.33;;;5.47;;
15354;SDS011;7777;52.254;9.618;2023-04-25T03:05:50;16.90;;;5.00;;
15354;SDS011;7777;52.254;9.618;2023-04-25T03:08:19;14.33;;;3.67;;
15354;SDS011;7777;52.254;9.618;2023-04-25T03:10:45;9.10;;;3.90;;
15354;SDS011;7777;52.254;9.618;2023-04-25T03:13:11;8.60;;;3.83;;
15354;SDS011;7777;52.254;9.618;2023-04-25T03:15:37;25.23;;;9.23;;
15354;SDS011;7777;52.254;9.618;2023-04-25T03:18:04;19.43;;;8.17;;
15354;SDS011;7777;52.254;9.618;2023-04-25T03:20:30;16.57;;;5.77;;
15354;SDS011;7777;52.254;9.618;2023-04-25T03:22:56;14.00;;;5.20;;
15354;SDS011;7777;52.254;9.618;2023-04-25T03:25:22;18.80;;;5.83;;
15354;SDS011;7777;52.254;9.618;2023-04-25T03:27:53;19.63;;;4.73;;
15354;SDS011;7777;52.254;9.618;2023-04-25T03:30:20;16.53;;;4.80;;
15354;SDS011;7777;52.254;9.618;2023-04-25T03:32:46;15.83;;;4.57;;
15354;SDS011;7777;52.254;9.618;2023-04-25T03:35:11;13.37;;;3.73;;
15354;SDS011;7777;52.254;9.618;2023-04-25T03:37:37;18.53;;;4.63;;
15354;SDS011;7777;52.254;9.618;2023-04-25T03:40:03;20.80;;;5.27;;
15354;SDS011;7777;52.254;9.618;2023-04-25T03:42:30;20.63;;;5.13;;
15354;SDS011;7777;52.254;9.618;2023-04-25T03:44:55;15.67;;;4.20;;
15354;SDS011;7777;52.254;9.618;2023-04-25T03:47:21;20.93;;;5.40;;
15354;SDS011;7777;52.254;9.618;2023-04-25T03:49:47;15.77;;;4.23;;
15354;SDS011;7777;52.254;9.618;2023-04-25T03:52:14;18.37;;;6.07;;
15354;SDS011;7777;52.254;9.618;2023-04-25T03:54:40;25.40;;;5.47;;
15354;SDS011;7777;52.254;9.618;2023-04-25T03:57:06;20.63;;;5.90;;
15354;SDS011;7777;52.254;9.618;2023-04-25T03:59:31;18.87;;;4.80;;
15354;SDS011;7777;52.254;9.618;2023-04-25T04:01:58;17.37;;;4.50;;
15354;SDS011;7777;52.254;9.618;2023-04-25T04:04:23;18.83;;;4.67;;
15354;SDS011;7777;52.254;9.618;2023-04-25T04:06:49;14.20;;;4.73;;
15354;SDS011;7777;52.254;9.618;2023-04-25T04:09:17;16.47;;;4.80;;
15354;SDS011;7777;52.254;9.618;2023-04-25T04:11:45;12.23;;;3.77;;
15354;SDS011;7777;52.254;9.618;2023-04-25T04:14:12;17.50;;;4.90;;
15354;SDS011;7777;52.254;9.618;2023-04-25T04:16:37;15.30;;;4.50;;
15354;SDS011;7777;52.254;9.618;2023-04-25T04:19:03;25.07;;;4.37;;
15354;SDS011;7777;52.254;9.618;2023-04-25T04:21:29;21.07;;;4.47;;
15354;SDS011;7777;52.254;9.618;2023-04-25T04:23:55;23.00;;;5.03;;
15354;SDS011;7777;52.254;9.618;2023-04-25T04:26:22;19.33;;;4.93;;
15354;SDS011;7777;52.254;9.618;2023-04-25T04:28:49;17.43;;;4.70;;
15354;SDS011;7777;52.254;9.618;2023-04-25T04:31:15;18.57;;;4.43;;
15354;SDS011;7777;52.254;9.618;2023-04-25T04:33:44;18.77;;;4.33;;
15354;SDS011;7777;52.254;9.618;2023-04-25T04:36:10;21.87;;;4.97;;
15354;SDS011;7777;52.254;9.618;2023-04-25T04:38:36;17.17;;;4.40;;
15354;SDS011;7777;52.254;9.618;2023-04-25T04:41:02;20.77;;;5.37;;
15354;SDS011;7777;52.254;9.618;2023-04-25T04:43:28;20.03;;;4.57;;
15354;SDS011;7777;52.254;9.618;2023-04-25T04:45:54;17.30;;;4.43;;
15354;SDS011;7777;52.254;9.618;2023-04-25T04:48:23;22.80;;;5.80;;
15354;SDS011;7777;52.254;9.618;2023-04-25T04:50:49;19.70;;;5.10;;
15354;SDS011;7777;52.254;9.618;2023-04-25T04:53:15;22.10;;;4.67;;
15354;SDS011;7777;52.254;9.618;2023-04-25T04:55:41;18.57;;;5.53;;
15354;SDS011;7777;52.254;9.618;2023-04-25T04:58:07;21.27;;;5.37;;
15354;SDS011;7777;52.254;9.618;2023-04-25T05:00:33;15.10;;;3.80;;
15354;SDS011;7777;52.254;9.618;2023-04-25T05:02:58;23.63;;;5.37;;
15354;SDS011;7777;52.254;9.618;2023-04-25T05:05:24;20.93;;;5.60;;
15354;SDS011;7777;52.254;9.618;2023-04-25T05:07:50;16.87;;;5.07;;
15354;SDS011;7777;52.254;9.618;2023-04-25T05:10:17;18.27;;;4.37;;
15354;SDS011;7777;52.254;9.618;2023-04-25T05:12:43;29.03;;;5.53;;
15354;SDS011;7777;52.254;9.618;2023-04-25T05:15:09;22.83;;;5.33;;
15354;SDS011;7777;52.254;9.618;2023-04-25T05:17:36;15.97;;;4.73;;
15354;SDS011;7777;52.254;9.618;2023-04-25T05:20:02;19.60;;;4.07;;
15354;SDS011;7777;52.254;9.618;2023-04-25T05:22:30;16.73;;;4.43;;
15354;SDS011;7777;52.254;9.618;2023-04-25T05:24:56;18.30;;;4.77;;
15354;SDS011;7777;52.254;9.618;2023-04-25T05:27:22;20.60;;;4.57;;
15354;SDS011;7777;52.254;9.618;2023-04-25T05:29:47;19.57;;;4.87;;
15354;SDS011;7777;52.254;9.618;2023-04-25T05:32:13;23.83;;;5.13;;
15354;SDS011;7777;52.254;9.618;2023-04-25T05:34:39;17.37;;;4.27;;
15354;SDS011;7777;52.254;9.618;2023-04-25T05:37:04;26.57;;;5.63;;
15354;SDS011;7777;52.254;9.618;2023-04-25T05:39:31;23.40;;;4.87;;
15354;SDS011;7777;52.254;9.618;2023-04-25T05:41:57;15.30;;;3.83;;
15354;SDS011;7777;52.254;9.618;2023-04-25T05:44:22;17.50;;;3.80;;
15354;SDS011;7777;52.254;9.618;2023-04-25T05:46:48;16.50;;;4.20;;
15354;SDS011;7777;52.254;9.618;2023-04-25T05:49:14;16.20;;;4.07;;
15354;SDS011;7777;52.254;9.618;2023-04-25T05:51:40;20.27;;;4.80;;
15354;SDS011;7777;52.254;9.618;2023-04-25T05:54:06;23.57;;;5.20;;
15354;SDS011;7777;52.254;9.618;2023-04-25T05:56:31;25.47;;;4.63;;
15354;SDS011;7777;52.254;9.618;2023-04-25T05:58:57;18.77;;;3.13;;
15354;SDS011;7777;52.254;9.618;2023-04-25T06:01:23;16.90;;;4.37;;
15354;SDS011;7777;52.254;9.618;2023-04-25T06:03:49;21.13;;;4.07;;
15354;SDS011;7777;52.254;9.618;2023-04-25T06:06:16;19.60;;;4.53;;
15354;SDS011;7777;52.254;9.618;2023-04-25T06:08:42;25.03;;;5.60;;
15354;SDS011;7777;52.254;9.618;2023-04-25T06:11:07;20.07;;;4.00;;
15354;SDS011;7777;52.254;9.618;2023-04-25T06:13:33;21.27;;;4.23;;
15354;SDS011;7777;52.254;9.618;2023-04-25T06:15:59;15.93;;;4.30;;
15354;SDS011;7777;52.254;9.618;2023-04-25T06:18:25;24.43;;;6.53;;
15354;SDS011;7777;52.254;9.618;2023-04-25T06:20:51;15.80;;;4.20;;
15354;SDS011;7777;52.254;9.618;2023-04-25T06:23:16;19.17;;;4.03;;
15354;SDS011;7777;52.254;9.618;2023-04-25T06:25:42;17.07;;;4.83;;
15354;SDS011;7777;52.254;9.618;2023-04-25T06:28:08;17.70;;;4.40;;
15354;SDS011;7777;52.254;9.618;2023-04-25T06:30:34;15.23;;;3.93;;
15354;SDS011;7777;52.254;9.618;2023-04-25T06:33:00;15.80;;;4.17;;
15354;SDS011;7777;52.254;9.618;2023-04-25T06:35:25;21.60;;;4.37;;
15354;SDS011;7777;52.254;9.618;2023-04-25T06:37:51;12.10;;;3.50;;
15354;SDS011;7777;52.254;9.618;2023-04-25T06:40:17;12.97;;;3.57;;
15354;SDS011;7777;52.254;9.618;2023-04-25T06:42:43;22.23;;;3.77;;
15354;SDS011;7777;52.254;9.618;2023-04-25T06:45:09;14.80;;;3.93;;
15354;SDS011;7777;52.254;9.618;2023-04-25T06:47:35;17.33;;;3.97;;
15354;SDS011;7777;52.254;9.618;2023-04-25T06:50:01;14.63;;;3.37;;
15354;SDS011;7777;52.254;9.618;2023-04-25T06:52:27;11.97;;;3.43;;
15354;SDS011;7777;52.254;9.618;2023-04-25T06:54:52;14.90;;;3.83;;
15354;SDS011;7777;52.254;9.618;2023-04-25T06:57:18;23.07;;;3.60;;
15354;SDS011;7777;52.254;9.618;2023-04-25T06:59:44;10.83;;;3.07;;
15354;SDS011;7777;52.254;9.618;2023-04-25T07:02:10;18.10;;;3.20;;
15354;SDS011;7777;52.254;9.618;2023-04-25T07:04:35;15.13;;;3.83;;
15354;SDS011;7777;52.254;9.618;2023-04-25T07:07:01;13.37;;;3.30;;
15354;SDS011;7777;52.254;9.618;2023-04-25T07:09:28;14.30;;;3.97;;
15354;SDS011;7777;52.254;9.618;2023-04-25T07:11:54;13.10;;;3.90;;
15354;SDS011;7777;52.254;9.618;2023-04-25T07:14:21;18.20;;;4.13;;
15354;SDS011;7777;52.254;9.618;2023-04-25T07:16:47;18.13;;;4.07;;
15354;SDS011;7777;52.254;9.618;2023-04-25T07:19:13;12.83;;;3.23;;
15354;SDS011;7777;52.254;9.618;2023-04-25T07:21:39;9.77;;;3.13;;
15354;SDS011;7777;52.254;9.618;2023-04-25T07:24:04;16.00;;;3.67;;
15354;SDS011;7777;52.254;9.618;2023-04-25T07:26:31;18.77;;;3.53;;
15354;SDS011;7777;52.254;9.618;2023-04-25T07:28:56;12.53;;;3.30;;
15354;SDS011;7777;52.254;9.618;2023-04-25T07:31:22;13.47;;;3.27;;
15354;SDS011;7777;52.254;9.618;2023-04-25T07:33:48;16.93;;;2.87;;
15354;SDS011;7777;52.254;9.618;2023-04-25T07:36:14;16.30;;;3.73;;
15354;SDS011;7777;52.254;9.618;2023-04-25T07:38:40;10.93;;;3.40;;
15354;SDS011;7777;52.254;9.618;2023-04-25T07:41:06;13.43;;;3.03;;
15354;SDS011;7777;52.254;9.618;2023-04-25T07:43:32;11.17;;;3.90;;
15354;SDS011;7777;52.254;9.618;2023-04-25T07:45:58;11.43;;;3.87;;
15354;SDS011;7777;52.254;9.618;2023-04-25T07:48:24;14.93;;;3.53;;
15354;SDS011;7777;52.254;9.618;2023-04-25T07:50:49;15.60;;;3.30;;
15354;SDS011;7777;52.254;9.618;2023-04-25T07:53:15;14.57;;;3.53;;
15354;SDS011;7777;52.254;9.618;2023-04-25T07:55:42;10.47;;;3.13;;
15354;SDS011;7777;52.254;9.618;2023-04-25T07:58:08;12.17;;;3.20;;
15354;SDS011;7777;52.254;9.618;2023-04-25T08:00:36;13.37;;;3.37;;
15354;SDS011;7777;52.254;9.618;2023-04-25T08:03:02;14.33;;;3.00;;
15354;SDS011;7777;52.254;9.618;2023-04-25T08:05:28;8.33;;;2.70;;
15354;SDS011;7777;52.254;9.618;2023-04-25T08:07:54;14.77;;;3.23;;
15354;SDS011;7777;52.254;9.618;2023-04-25T08:10:21;16.70;;;3.00;;
15354;SDS011;7777;52.254;9.618;2023-04-25T08:12:48;10.97;;;3.30;;
15354;SDS011;7777;52.254;9.618;2023-04-25T08:15:14;13.37;;;2.50;;
15354;SDS011;7777;52.254;9.618;2023-04-25T08:17:40;10.87;;;2.47;;
15354;SDS011;7777;52.254;9.618;2023-04-25T08:20:06;11.73;;;2.40;;
15354;SDS011;7777;52.254;9.618;2023-04-25T08:22:32;8.23;;;2.90;;
15354;SDS011;7777;52.254;9.618;2023-04-25T08:24:59;11.57;;;2.70;;
15354;SDS011;7777;52.254;9.618;2023-04-25T08:27:24;14.20;;;2.43;;
15354;SDS011;7777;52.254;9.618;2023-04-25T08:29:50;12.73;;;2.50;;
15354;SDS011;7777;52.254;9.618;2023-04-25T08:32:16;13.13;;;2.80;;
15354;SDS011;7777;52.254;9.618;2023-04-25T08:34:43;13.97;;;3.03;;
15354;SDS011;7777;52.254;9.618;2023-04-25T08:37:12;12.70;;;3.27;;
15354;SDS011;7777;52.254;9.618;2023-04-25T08:39:38;6.87;;;1.90;;
15354;SDS011;7777;52.254;9.618;2023-04-25T08:42:04;8.60;;;2.37;;
15354;SDS011;7777;52.254;9.618;2023-04-25T08:44:35;7.33;;;2.20;;
15354;SDS011;7777;52.254;9.618;2023-04-25T08:47:02;10.03;;;2.53;;
15354;SDS011;7777;52.254;9.618;2023-04-25T08:49:33;10.70;;;2.07;;
15354;SDS011;7777;52.254;9.618;2023-04-25T08:52:00;6.00;;;1.83;;
15354;SDS011;7777;52.254;9.618;2023-04-25T08:54:32;9.70;;;2.33;;
15354;SDS011;7777;52.254;9.618;2023-04-25T08:57:02;15.97;;;2.80;;
15354;SDS011;7777;52.254;9.618;2023-04-25T08:59:29;11.07;;;2.43;;
15354;SDS011;7777;52.254;9.618;2023-04-25T09:01:56;10.93;;;2.37;;
15354;SDS011;7777;52.254;9.618;2023-04-25T09:04:22;11.63;;;2.30;;
15354;SDS011;7777;52.254;9.618;2023-04-25T09:06:48;8.77;;;2.40;;
15354;SDS011;7777;52.254;9.618;2023-04-25T09:09:14;10.47;;;2.50;;
15354;SDS011;7777;52.254;9.618;2023-04-25T09:11:40;9.23;;;2.17;;
15354;SDS011;7777;52.254;9.618;2023-04-25T09:14:16;9.40;;;2.40;;
15354;SDS011;7777;52.254;9.618;2023-04-25T09:19:27;12.20;;;2.63;;
15354;SDS011;7777;52.254;9.618;2023-04-25T09:22:02;10.93;;;2.53;;
15354;SDS011;7777;52.254;9.618;2023-04-25T09:24:36;12.53;;;2.10;;
15354;SDS011;7777;52.254;9.618;2023-04-25T09:27:17;8.00;;;1.80;;
15354;SDS011;7777;52.254;9.618;2023-04-25T09:29:47;9.03;;;1.90;;
15354;SDS011;7777;52.254;9.618;2023-04-25T09:32:23;4.90;;;1.77;;
15354;SDS011;7777;52.254;9.618;2023-04-25T09:34:50;8.80;;;2.57;;
15354;SDS011;7777;52.254;9.618;2023-04-25T09:37:17;7.40;;;1.80;;
15354;SDS011;7777;52.254;9.618;2023-04-25T09:39:52;5.47;;;1.80;;
15354;SDS011;7777;52.254;9.618;2023-04-25T09:42:24;6.90;;;2.17;;
15354;SDS011;7777;52.254;9.618;2023-04-25T09:44:52;9.07;;;1.93;;
15354;SDS011;7777;52.254;9.618;2023-04-25T09:47:20;6.47;;;1.70;;
15354;SDS011;7777;52.254;9.618;2023-04-25T09:49:48;5.03;;;1.97;;
15354;SDS011;7777;52.254;9.618;2023-04-25T09:52:16;4.53;;;1.73;;
15354;SDS011;7777;52.254;9.618;2023-04-25T09:54:44;7.93;;;2.37;;
15354;SDS011;7777;52.254;9.618;2023-04-25T09:57:12;10.37;;;2.30;;
15354;SDS011;7777;52.254;9.618;2023-04-25T09:59:42;5.57;;;1.80;;
15354;SDS011;7777;52.254;9.618;2023-04-25T10:02:17;9.57;;;2.17;;
15354;SDS011;7777;52.254;9.618;2023-04-25T10:04:49;8.90;;;2.13;;
15354;SDS011;7777;52.254;9.618;2023-04-25T10:07:18;6.53;;;1.70;;
15354;SDS011;7777;52.254;9.618;2023-04-25T10:09:47;6.10;;;2.07;;
15354;SDS011;7777;52.254;9.618;2023-04-25T10:12:16;8.20;;;1.93;;
15354;SDS011;7777;52.254;9.618;2023-04-25T10:14:43;4.53;;;1.80;;
15354;SDS011;7777;52.254;9.618;2023-04-25T10:17:10;12.63;;;3.43;;
15354;SDS011;7777;52.254;9.618;2023-04-25T10:19:39;13.30;;;3.97;;
15354;SDS011;7777;52.254;9.618;2023-04-25T10:22:26;5.33;;;1.80;;
15354;SDS011;7777;52.254;9.618;2023-04-25T10:25:02;4.10;;;1.40;;
15354;SDS011;7777;52.254;9.618;2023-04-25T10:27:31;7.50;;;2.33;;
15354;SDS011;7777;52.254;9.618;2023-04-25T10:30:30;8.33;;;1.80;;
15354;SDS011;7777;52.254;9.618;2023-04-25T10:32:49;8.80;;;1.93;;
15354;SDS011;7777;52.254;9.618;2023-04-25T10:35:17;8.57;;;1.97;;
15354;SDS011;7777;52.254;9.618;2023-04-25T10:38:04;8.63;;;2.03;;
15354;SDS011;7777;52.254;9.618;2023-04-25T10:40:35;7.60;;;1.60;;
15354;SDS011;7777;52.254;9.618;2023-04-25T10:46:01;8.93;;;1.73;;
15354;SDS011;7777;52.254;9.618;2023-04-25T10:49:00;9.10;;;2.13;;
15354;SDS011;7777;52.254;9.618;2023-04-25T10:51:31;5.50;;;1.80;;
15354;SDS011;7777;52.254;9.618;2023-04-25T10:54:05;8.00;;;1.70;;
15354;SDS011;7777;52.254;9.618;2023-04-25T10:59:12;9.00;;;1.93;;
15354;SDS011;7777;52.254;9.618;2023-04-25T11:01:41;6.97;;;1.20;;
15354;SDS011;7777;52.254;9.618;2023-04-25T11:09:50;5.17;;;1.80;;
15354;SDS011;7777;52.254;9.618;2023-04-25T11:12:16;6.33;;;1.60;;
15354;SDS011;7777;52.254;9.618;2023-04-25T11:14:42;6.73;;;1.80;;
15354;SDS011;7777;52.254;9.618;2023-04-25T11:17:08;6.47;;;2.53;;
15354;SDS011;7777;52.254;9.618;2023-04-25T11:19:36;6.73;;;2.20;;
15354;SDS011;7777;52.254;9.618;2023-04-25T11:22:02;8.93;;;1.17;;
15354;SDS011;7777;52.254;9.618;2023-04-25T11:24:29;6.27;;;1.80;;
15354;SDS011;7777;52.254;9.618;2023-04-25T11:26:56;7.17;;;1.67;;
15354;SDS011;7777;52.254;9.618;2023-04-25T11:29:27;9.73;;;2.30;;
15354;SDS011;7777;52.254;9.618;2023-04-25T11:31:57;7.20;;;2.43;;
15354;SDS011;7777;52.254;9.618;2023-04-25T11:34:26;8.70;;;2.03;;
15354;SDS011;7777;52.254;9.618;2023-04-25T11:36:55;5.03;;;1.30;;
15354;SDS011;7777;52.254;9.618;2023-04-25T11:39:21;5.30;;;2.00;;
15354;SDS011;7777;52.254;9.618;2023-04-25T11:41:49;7.87;;;2.20;;
15354;SDS011;7777;52.254;9.618;2023-04-25T11:44:15;5.17;;;1.80;;
15354;SDS011;7777;52.254;9.618;2023-04-25T11:46:42;7.27;;;1.90;;
15354;SDS011;7777;52.254;9.618;2023-04-25T11:49:09;6.83;;;1.90;;
15354;SDS011;7777;52.254;9.618;2023-04-25T11:51:41;8.90;;;1.80;;
15354;SDS011;7777;52.254;9.618;2023-04-25T11:54:12;9.23;;;1.97;;
15354;SDS011;7777;52.254;9.618;2023-04-25T11:56:45;8.80;;;1.70;;
15354;SDS011;7777;52.254;9.618;2023-04-25T11:59:11;9.00;;;2.30;;
15354;SDS011;7777;52.254;9.618;2023-04-25T12:01:38;6.27;;;2.00;;
15354;SDS011;7777;52.254;9.618;2023-04-25T12:04:10;4.77;;;2.00;;
15354;SDS011;7777;52.254;9.618;2023-04-25T12:06:47;5.73;;;2.17;;
15354;SDS011;7777;52.254;9.618;2023-04-25T12:09:19;9.23;;;2.20;;
15354;SDS011;7777;52.254;9.618;2023-04-25T12:11:56;6.60;;;2.07;;
15354;SDS011;7777;52.254;9.618;2023-04-25T12:14:27;7.33;;;2.50;;
15354;SDS011;7777;52.254;9.618;2023-04-25T12:16:56;4.37;;;1.67;;
15354;SDS011;7777;52.254;9.618;2023-04-25T12:19:23;5.80;;;2.00;;
15354;SDS011;7777;52.254;9.618;2023-04-25T12:21:50;4.37;;;1.70;;
15354;SDS011;7777;52.254;9.618;2023-04-25T12:24:23;6.07;;;1.37;;
15354;SDS011;7777;52.254;9.618;2023-04-25T12:29:29;6.13;;;1.53;;
15354;SDS011;7777;52.254;9.618;2023-04-25T12:31:57;4.07;;;1.27;;
15354;SDS011;7777;52.254;9.618;2023-04-25T12:34:23;5.47;;;1.23;;
15354;SDS011;7777;52.254;9.618;2023-04-25T12:36:50;6.73;;;1.37;;
15354;SDS011;7777;52.254;9.618;2023-04-25T12:39:23;3.90;;;1.13;;
15354;SDS011;7777;52.254;9.618;2023-04-25T12:41:52;5.37;;;1.13;;
15354;SDS011;7777;52.254;9.618;2023-04-25T12:44:19;8.80;;;1.40;;
15354;SDS011;7777;52.254;9.618;2023-04-25T12:46:45;4.17;;;1.20;;
15354;SDS011;7777;52.254;9.618;2023-04-25T12:49:12;5.70;;;1.03;;
15354;SDS011;7777;52.254;9.618;2023-04-25T12:51:37;3.43;;;1.33;;
15354;SDS011;7777;52.254;9.618;2023-04-25T12:54:04;5.53;;;1.20;;
15354;SDS011;7777;52.254;9.618;2023-04-25T12:56:32;4.43;;;1.20;;
15354;SDS011;7777;52.254;9.618;2023-04-25T12:58:57;6.33;;;1.93;;
15354;SDS011;7777;52.254;9.618;2023-04-25T13:01:24;2.97;;;0.93;;
15354;SDS011;7777;52.254;9.618;2023-04-25T13:03:51;4.33;;;1.27;;
15354;SDS011;7777;52.254;9.618;2023-04-25T13:06:20;4.13;;;1.20;;
15354;SDS011;7777;52.254;9.618;2023-04-25T13:08:47;7.17;;;1.33;;
15354;SDS011;7777;52.254;9.618;2023-04-25T13:11:13;4.53;;;1.30;;
15354;SDS011;7777;52.254;9.618;2023-04-25T13:13:42;6.20;;;1.33;;
15354;SDS011;7777;52.254;9.618;2023-04-25T13:16:08;3.77;;;1.30;;
15354;SDS011;7777;52.254;9.618;2023-04-25T13:18:35;3.17;;;1.07;;
15354;SDS011;7777;52.254;9.618;2023-04-25T13:21:01;2.70;;;1.00;;
15354;SDS011;7777;52.254;9.618;2023-04-25T13:23:27;5.27;;;1.20;;
15354;SDS011;7777;52.254;9.618;2023-04-25T13:25:54;9.33;;;1.63;;
15354;SDS011;7777;52.254;9.618;2023-04-25T13:28:23;5.10;;;1.13;;
15354;SDS011;7777;52.254;9.618;2023-04-25T13:30:50;5.30;;;1.20;;
15354;SDS011;7777;52.254;9.618;2023-04-25T13:33:16;4.80;;;1.10;;
15354;SDS011;7777;52.254;9.618;2023-04-25T13:35:42;4.03;;;1.13;;
15354;SDS011;7777;52.254;9.618;2023-04-25T13:38:11;3.67;;;1.10;;
15354;SDS011;7777;52.254;9.618;2023-04-25T13:40:38;5.20;;;1.10;;
15354;SDS011;7777;52.254;9.618;2023-04-25T13:43:04;3.63;;;1.30;;
15354;SDS011;7777;52.254;9.618;2023-04-25T13:45:31;4.40;;;1.40;;
15354;SDS011;7777;52.254;9.618;2023-04-25T13:47:57;4.53;;;1.30;;
15354;SDS011;7777;52.254;9.618;2023-04-25T13:50:23;5.67;;;1.20;;
15354;SDS011;7777;52.254;9.618;2023-04-25T13:52:48;6.87;;;1.73;;
15354;SDS011;7777;52.254;9.618;2023-04-25T13:55:14;5.37;;;1.40;;
15354;SDS011;7777;52.254;9.618;2023-04-25T13:57:40;4.13;;;1.60;;
15354;SDS011;7777;52.254;9.618;2023-04-25T14:00:07;4.40;;;1.90;;
15354;SDS011;7777;52.254;9.618;2023-04-25T14:02:36;5.73;;;1.70;;
15354;SDS011;7777;52.254;9.618;2023-04-25T14:05:03;5.03;;;1.67;;
15354;SDS011;7777;52.254;9.618;2023-04-25T14:07:30;5.47;;;1.67;;
15354;SDS011;7777;52.254;9.618;2023-04-25T14:09:56;5.53;;;1.53;;
15354;SDS011;7777;52.254;9.618;2023-04-25T14:12:22;6.43;;;1.50;;
15354;SDS011;7777;52.254;9.618;2023-04-25T14:14:48;8.17;;;1.37;;
15354;SDS011;7777;52.254;9.618;2023-04-25T14:17:14;6.23;;;1.50;;
15354;SDS011;7777;52.254;9.618;2023-04-25T14:19:40;5.03;;;1.83;;
15354;SDS011;7777;52.254;9.618;2023-04-25T14:22:10;3.83;;;1.33;;
15354;SDS011;7777;52.254;9.618;2023-04-25T14:24:36;4.60;;;1.70;;
15354;SDS011;7777;52.254;9.618;2023-04-25T14:27:01;5.73;;;2.07;;
15354;SDS011;7777;52.254;9.618;2023-04-25T14:29:29;5.43;;;1.50;;
15354;SDS011;7777;52.254;9.618;2023-04-25T14:31:55;6.60;;;1.80;;
15354;SDS011;7777;52.254;9.618;2023-04-25T14:34:22;6.50;;;1.83;;
15354;SDS011;7777;52.254;9.618;2023-04-25T14:36:48;5.27;;;1.63;;
15354;SDS011;7777;52.254;9.618;2023-04-25T14:39:14;4.83;;;1.30;;
15354;SDS011;7777;52.254;9.618;2023-04-25T14:41:40;6.00;;;1.73;;
15354;SDS011;7777;52.254;9.618;2023-04-25T14:44:06;7.87;;;1.60;;
15354;SDS011;7777;52.254;9.618;2023-04-25T14:46:31;8.23;;;1.77;;
15354;SDS011;7777;52.254;9.618;2023-04-25T14:48:57;3.70;;;1.40;;
15354;SDS011;7777;52.254;9.618;2023-04-25T14:51:23;4.70;;;1.37;;
15354;SDS011;7777;52.254;9.618;2023-04-25T14:53:49;6.60;;;1.00;;
15354;SDS011;7777;52.254;9.618;2023-04-25T14:56:15;4.03;;;1.50;;
15354;SDS011;7777;52.254;9.618;2023-04-25T14:58:41;4.33;;;1.10;;
15354;SDS011;7777;52.254;9.618;2023-04-25T15:01:07;6.83;;;1.63;;
15354;SDS011;7777;52.254;9.618;2023-04-25T15:03:33;4.23;;;1.50;;
15354;SDS011;7777;52.254;9.618;2023-04-25T15:05:58;5.83;;;1.53;;
15354;SDS011;7777;52.254;9.618;2023-04-25T15:08:24;2.90;;;1.30;;
15354;SDS011;7777;52.254;9.618;2023-04-25T15:10:50;4.40;;;1.33;;